createdAt,value
2022-11-02T00:01:55.961Z,100842.56
2022-11-02T00:04:41.201Z,100840.00
2022-11-02T00:07:26.846Z,100828.78
2022-11-02T00:10:11.756Z,100817.78
2022-11-02T00:12:57.201Z,100815.19
2022-11-02T00:15:42.304Z,100822.91
2022-11-02T00:18:27.395Z,100820.44
2022-11-02T00:21:13.252Z,100809.25
2022-11-02T00:28:22.713Z,100808.50
2022-11-02T00:31:07.757Z,100805.09
2022-11-02T00:33:53.101Z,100819.78
2022-11-02T00:36:38.424Z,100805.97
2022-11-02T00:39:23.306Z,100808.59
2022-11-02T00:42:08.355Z,100807.78
2022-11-02T00:44:53.667Z,100808.69
2022-11-02T00:47:38.648Z,100806.13
2022-11-02T00:50:23.482Z,100794.97
2022-11-02T00:53:08.441Z,100796.66
2022-11-02T00:55:53.669Z,100789.84
2022-11-02T00:58:39.322Z,100793.31
2022-11-02T01:01:24.591Z,100781.22
2022-11-02T01:04:09.826Z,100776.09
2022-11-02T01:06:55.346Z,100774.38
2022-11-02T01:09:41.055Z,100770.91
2022-11-02T01:12:26.426Z,100786.47
2022-11-02T01:15:11.363Z,100784.72
2022-11-02T01:17:56.770Z,100783.03
2022-11-02T01:20:41.967Z,100770.97
2022-11-02T01:23:27.119Z,100772.72
2022-11-02T01:26:12.206Z,100771.88
2022-11-02T01:28:57.341Z,100777.03
2022-11-02T01:31:42.607Z,100781.34
2022-11-02T01:34:27.710Z,100790.00
2022-11-02T01:37:12.856Z,100807.16
2022-11-02T01:40:17.810Z,100826.88
2022-11-02T01:43:25.111Z,100831.00
2022-11-02T01:46:10.872Z,100841.28
2022-11-02T01:49:02.334Z,100844.66
2022-11-02T01:52:22.616Z,100842.06
2022-11-02T01:55:16.405Z,100836.91
2022-11-02T01:58:09.867Z,100834.22
2022-11-02T02:01:56.812Z,100833.44
2022-11-02T02:04:44.011Z,100842.13
2022-11-02T02:07:31.304Z,100831.75
2022-11-02T02:10:17.187Z,100830.81
2022-11-02T02:13:05.655Z,100831.75
2022-11-02T02:16:15.649Z,100825.00
2022-11-02T02:19:05.203Z,100825.94
2022-11-02T02:22:15.969Z,100822.56
2022-11-02T02:28:21.683Z,100823.47
2022-11-02T02:34:56.298Z,100815.59
2022-11-02T02:37:45.930Z,100825.00
2022-11-02T02:40:35.958Z,100816.44
2022-11-02T02:43:29.173Z,100819.97
2022-11-02T02:46:23.599Z,100803.63
2022-11-02T02:49:12.616Z,100799.31
2022-11-02T02:51:59.914Z,100789.78
2022-11-02T02:54:47.152Z,100782.94
2022-11-02T02:57:35.266Z,100790.53
2022-11-02T03:00:20.537Z,100798.31
2022-11-02T03:03:15.885Z,100789.53
2022-11-02T03:06:10.099Z,100793.09
2022-11-02T03:09:02.475Z,100793.13
2022-11-02T03:12:01.718Z,100780.22
2022-11-02T03:14:47.087Z,100775.00
2022-11-02T03:17:40.324Z,100775.81
2022-11-02T03:20:33.491Z,100777.66
2022-11-02T03:23:28.764Z,100777.69
2022-11-02T03:26:26.175Z,100775.94
2022-11-02T03:29:18.676Z,100777.56
2022-11-02T03:32:09.152Z,100770.75
2022-11-02T03:34:57.939Z,100779.38
2022-11-02T03:37:49.695Z,100779.28
2022-11-02T03:40:40.666Z,100788.66
2022-11-02T03:43:26.502Z,100785.16
2022-11-02T03:46:12.493Z,100786.19
2022-11-02T03:48:57.497Z,100778.22
2022-11-02T03:51:45.071Z,100793.81
2022-11-02T03:54:41.832Z,100793.91
2022-11-02T04:01:11.108Z,100800.69
2022-11-02T04:03:56.739Z,100806.63
2022-11-02T04:06:42.828Z,100820.25
2022-11-02T04:09:28.224Z,100828.88
2022-11-02T04:12:13.602Z,100831.47
2022-11-02T04:14:58.920Z,100822.94
2022-11-02T04:17:44.460Z,100826.25
2022-11-02T04:20:29.412Z,100832.38
2022-11-02T04:23:14.915Z,100832.41
2022-11-02T04:26:00.179Z,100830.72
2022-11-02T04:28:45.476Z,100839.31
2022-11-02T04:31:31.234Z,100838.38
2022-11-02T04:34:16.723Z,100843.66
2022-11-02T04:37:01.968Z,100846.31
2022-11-02T04:39:47.001Z,100849.69
2022-11-02T04:42:32.130Z,100850.63
2022-11-02T04:45:17.444Z,100848.88
2022-11-02T04:48:20.730Z,100843.84
2022-11-02T04:51:05.977Z,100839.53
2022-11-02T04:53:53.406Z,100849.13
2022-11-02T04:56:38.640Z,100841.38
2022-11-02T04:59:23.993Z,100840.56
2022-11-02T05:02:09.238Z,100854.47
2022-11-02T05:04:54.529Z,100836.44
2022-11-02T05:07:40.161Z,100827.84
2022-11-02T05:10:25.395Z,100833.03
2022-11-02T05:13:10.844Z,100838.16
2022-11-02T05:15:57.241Z,100836.50
2022-11-02T05:18:43.064Z,100848.53
2022-11-02T05:21:28.212Z,100836.53
2022-11-02T05:24:13.138Z,100823.66
2022-11-02T05:26:58.633Z,100824.47
2022-11-02T05:29:43.901Z,100833.09
2022-11-02T05:33:00.927Z,100827.00
2022-11-02T05:39:12.051Z,100836.19
2022-11-02T05:41:57.505Z,100841.31
2022-11-02T05:44:42.937Z,100852.38
2022-11-02T05:47:28.148Z,100859.31
2022-11-02T05:50:13.754Z,100859.38
2022-11-02T05:52:59.029Z,100855.91
2022-11-02T05:55:43.849Z,100861.13
2022-11-02T05:58:28.985Z,100868.00
2022-11-02T06:01:14.402Z,100869.69
2022-11-02T06:03:59.827Z,100858.59
2022-11-02T06:06:45.260Z,100861.00
2022-11-02T06:09:30.246Z,100860.38
2022-11-02T06:12:15.626Z,100865.63
2022-11-02T06:15:00.641Z,100866.44
2022-11-02T06:17:46.011Z,100888.03
2022-11-02T06:20:31.041Z,100876.19
2022-11-02T06:23:16.391Z,100877.00
2022-11-02T06:26:02.229Z,100882.28
2022-11-02T06:28:47.066Z,100885.81
2022-11-02T06:31:31.941Z,100884.25
2022-11-02T06:34:17.334Z,100884.25
2022-11-02T06:37:02.506Z,100876.41
2022-11-02T06:39:48.119Z,100883.34
2022-11-02T06:42:36.983Z,100890.28
2022-11-02T06:45:30.014Z,100890.38
2022-11-02T06:48:15.501Z,100880.84
2022-11-02T06:54:37.476Z,100900.69
2022-11-02T06:57:22.863Z,100897.31
2022-11-02T07:00:15.555Z,100900.78
2022-11-02T07:03:06.157Z,100918.84
2022-11-02T07:05:52.539Z,100924.94
2022-11-02T07:08:37.955Z,100902.53
2022-11-02T07:11:22.864Z,100932.03
2022-11-02T07:14:08.059Z,100922.47
2022-11-02T07:16:53.250Z,100927.63
2022-11-02T07:19:38.087Z,100933.69
2022-11-02T07:22:23.158Z,100948.28
2022-11-02T07:25:08.745Z,100951.81
2022-11-02T07:27:59.039Z,100941.50
2022-11-02T07:30:44.388Z,100951.81
2022-11-02T07:33:29.556Z,100954.44
2022-11-02T07:36:14.522Z,100950.06
2022-11-02T07:39:00.625Z,100958.78
2022-11-02T07:41:50.815Z,100950.19
2022-11-02T07:44:37.409Z,100947.63
2022-11-02T07:47:22.415Z,100956.34
2022-11-02T07:50:07.647Z,100959.88
2022-11-02T07:52:55.228Z,100955.63
2022-11-02T07:55:40.451Z,100972.78
2022-11-02T07:58:26.057Z,100974.56
2022-11-02T08:01:11.331Z,100947.97
2022-11-02T08:03:57.770Z,100935.88
2022-11-02T08:06:43.205Z,100925.47
2022-11-02T08:09:28.536Z,100935.78
2022-11-02T08:12:13.557Z,100920.28
2022-11-02T08:15:01.239Z,100912.56
2022-11-02T08:18:14.195Z,100957.53
2022-11-02T08:20:59.582Z,100974.75
2022-11-02T08:23:44.572Z,100966.91
2022-11-02T08:26:29.661Z,100972.97
2022-11-02T08:29:14.688Z,100973.81
2022-11-02T08:31:59.564Z,100992.81
2022-11-02T08:34:44.609Z,101000.59
2022-11-02T08:37:30.067Z,101010.97
2022-11-02T08:40:15.429Z,100997.13
2022-11-02T08:43:02.595Z,101015.38
2022-11-02T08:46:13.730Z,101020.47
2022-11-02T08:48:53.542Z,101032.50
2022-11-02T08:51:38.326Z,101044.75
2022-11-02T08:54:23.687Z,101027.59
2022-11-02T08:57:08.543Z,101022.31
2022-11-02T08:59:53.608Z,101019.72
2022-11-02T09:02:38.899Z,101020.72
2022-11-02T09:05:24.305Z,101014.63
2022-11-02T09:08:17.376Z,101002.66
2022-11-02T09:11:03.583Z,101022.56
2022-11-02T09:13:52.813Z,101030.44
2022-11-02T09:16:45.324Z,101038.22
2022-11-02T09:19:30.674Z,101037.47
2022-11-02T09:22:16.069Z,101049.63
2022-11-02T09:25:01.501Z,101045.25
2022-11-02T09:27:50.401Z,101039.34
2022-11-02T09:30:37.994Z,101023.78
2022-11-02T09:33:23.411Z,101043.81
2022-11-02T09:36:08.552Z,101058.53
2022-11-02T09:38:53.412Z,101051.47
2022-11-02T09:41:56.816Z,101070.31
2022-11-02T09:44:56.888Z,101055.72
2022-11-02T09:51:37.925Z,101047.19
2022-11-02T09:54:32.633Z,101039.19
2022-11-02T09:57:27.496Z,101051.03
2022-11-02T10:00:14.389Z,101038.22
2022-11-02T10:03:16.330Z,101057.50
2022-11-02T10:06:12.264Z,101050.81
2022-11-02T10:09:09.311Z,101055.97
2022-11-02T10:12:23.211Z,101065.19
2022-11-02T10:15:18.542Z,101071.31
2022-11-02T10:18:04.999Z,101073.72
2022-11-02T10:20:54.034Z,101083.44
2022-11-02T10:23:49.816Z,101075.53
2022-11-02T10:26:37.439Z,101070.91
2022-11-02T10:29:45.010Z,101101.06
2022-11-02T10:32:36.461Z,101096.66
2022-11-02T10:35:45.762Z,101104.28
2022-11-02T10:38:45.525Z,101123.31
2022-11-02T10:41:40.085Z,101079.34
2022-11-02T10:44:56.412Z,101077.44
2022-11-02T10:47:53.522Z,101092.00
2022-11-02T10:51:07.355Z,101060.25
2022-11-02T10:53:53.319Z,101058.00
2022-11-02T10:56:39.610Z,101046.97
2022-11-02T10:59:24.563Z,101048.38
2022-11-02T11:02:14.620Z,101032.53
2022-11-02T11:05:13.672Z,101066.81
2022-11-02T11:08:00.568Z,101053.59
2022-11-02T11:10:45.861Z,101059.84
2022-11-02T11:16:39.762Z,101098.41
2022-11-02T11:19:40.603Z,101038.31
2022-11-02T11:22:29.441Z,101095.47
2022-11-02T11:25:27.629Z,101073.53
2022-11-02T11:28:31.311Z,101044.19
2022-11-02T11:31:17.830Z,101059.94
2022-11-02T11:34:03.042Z,101034.91
2022-11-02T11:36:48.493Z,101028.94
2022-11-02T11:39:44.950Z,101049.88
2022-11-02T11:42:35.459Z,101035.06
2022-11-02T11:45:22.562Z,100987.50
2022-11-02T11:48:27.134Z,101015.03
2022-11-02T11:51:31.057Z,101040.38
2022-11-02T11:54:30.588Z,101051.44
2022-11-02T11:57:31.141Z,101027.97
2022-11-02T12:00:28.215Z,101002.69
2022-11-02T12:03:14.008Z,101016.44
2022-11-02T12:06:28.581Z,101043.03
2022-11-02T12:09:30.593Z,101021.38
2022-11-02T12:12:29.004Z,101029.44
2022-11-02T12:15:22.688Z,101040.19
2022-11-02T12:18:22.999Z,101026.53
2022-11-02T12:21:20.780Z,100978.28
2022-11-02T12:24:08.761Z,100955.75
2022-11-02T12:27:04.265Z,100949.63
2022-11-02T12:29:59.988Z,100951.34
2022-11-02T12:33:07.337Z,100946.13
2022-11-02T12:36:16.157Z,100928.78
2022-11-02T12:39:07.320Z,100954.84
2022-11-02T12:42:00.293Z,100956.44
2022-11-02T12:45:04.321Z,100959.88
2022-11-02T12:48:05.137Z,100946.09
2022-11-02T12:50:57.367Z,100979.84
2022-11-02T12:53:48.624Z,100962.47
2022-11-02T12:56:51.638Z,100985.97
2022-11-02T12:59:40.453Z,100992.38
2022-11-02T13:02:51.458Z,100937.69
2022-11-02T13:05:46.951Z,100974.19
2022-11-02T13:09:24.188Z,100931.63
2022-11-02T13:12:35.488Z,100922.25
2022-11-02T13:15:45.938Z,100921.34
2022-11-02T13:18:54.995Z,100910.81
2022-11-02T13:25:22.963Z,100912.53
2022-11-02T13:28:28.868Z,100934.16
2022-11-02T13:31:28.211Z,100948.00
2022-11-02T13:34:29.171Z,100933.88
2022-11-02T13:37:31.172Z,100987.88
2022-11-02T13:40:32.053Z,100961.72
2022-11-02T13:43:50.352Z,100944.44
2022-11-02T13:47:50.142Z,100925.09
2022-11-02T13:50:42.624Z,100933.84
2022-11-02T13:53:33.668Z,100941.75
2022-11-02T14:00:23.373Z,100933.28
2022-11-02T14:03:33.562Z,100952.16
2022-11-02T14:06:20.645Z,100954.72
2022-11-02T14:09:08.902Z,100943.41
2022-11-02T14:12:13.455Z,100940.72
2022-11-02T14:15:14.163Z,100958.06
2022-11-02T14:18:15.000Z,100970.44
2022-11-02T14:21:45.743Z,100976.41
2022-11-02T14:24:33.754Z,100958.06
2022-11-02T14:27:19.237Z,100964.97
2022-11-02T14:30:05.000Z,100991.00
2022-11-02T14:33:05.327Z,100991.09
2022-11-02T14:36:00.196Z,100978.91
2022-11-02T14:39:07.048Z,101005.06
2022-11-02T14:44:55.409Z,101003.13
2022-11-02T14:47:40.615Z,101007.50
2022-11-02T14:50:25.793Z,100982.56
2022-11-02T14:53:26.092Z,100956.41
2022-11-02T14:56:11.178Z,100985.75
2022-11-02T14:58:59.193Z,100971.03
2022-11-02T15:02:27.524Z,100989.13
2022-11-02T15:05:48.156Z,100988.97
2022-11-02T15:08:37.974Z,100968.88
2022-11-02T15:11:42.452Z,100973.16
2022-11-02T15:14:37.048Z,100957.63
2022-11-02T15:17:22.891Z,100975.69
2022-11-02T15:20:14.325Z,100975.66
2022-11-02T15:23:30.368Z,100986.72
2022-11-02T15:26:22.974Z,100981.41
2022-11-02T15:29:16.322Z,100994.25
2022-11-02T15:32:03.891Z,100991.56
2022-11-02T15:34:51.535Z,100999.22
2022-11-02T15:37:56.538Z,101012.16
2022-11-02T15:40:51.362Z,101013.88
2022-11-02T15:44:04.233Z,101000.19
2022-11-02T15:47:32.580Z,101004.50
2022-11-02T15:50:44.802Z,101009.63
2022-11-02T15:53:41.708Z,101007.59
2022-11-02T15:56:43.844Z,101017.81
2022-11-02T15:59:51.087Z,101028.19
2022-11-02T16:02:45.671Z,101033.28
2022-11-02T16:05:43.832Z,101033.25
2022-11-02T16:08:34.196Z,101038.47
2022-11-02T16:11:19.928Z,101046.22
2022-11-02T16:14:18.482Z,101043.63
2022-11-02T16:17:04.252Z,101053.06
2022-11-02T16:19:49.787Z,101048.50
2022-11-02T16:22:35.578Z,101061.38
2022-11-02T16:25:39.619Z,101061.31
2022-11-02T16:28:27.443Z,101057.88
2022-11-02T16:31:18.494Z,101070.63
2022-11-02T16:34:19.671Z,101071.41
2022-11-02T16:37:10.373Z,101086.91
2022-11-02T16:39:55.840Z,101083.50
2022-11-02T16:42:43.209Z,101091.84
2022-11-02T16:45:35.883Z,101095.22
2022-11-02T16:48:27.480Z,101101.09
2022-11-02T16:51:14.825Z,101114.06
2022-11-02T16:54:33.260Z,101119.25
2022-11-02T16:57:22.224Z,101110.59
2022-11-02T17:00:34.221Z,101119.06
2022-11-02T17:03:41.529Z,101125.25
2022-11-02T17:06:27.018Z,101146.81
2022-11-02T17:09:28.609Z,101145.06
2022-11-02T17:12:16.236Z,101150.19
2022-11-02T17:15:10.855Z,101154.41
2022-11-02T17:18:08.708Z,101158.72
2022-11-02T17:21:14.245Z,101156.13
2022-11-02T17:24:00.130Z,101159.56
2022-11-02T17:26:45.753Z,101167.28
2022-11-02T17:29:31.199Z,101168.06
2022-11-02T17:32:17.616Z,101166.22
2022-11-02T17:35:03.539Z,101167.75
2022-11-02T17:37:49.573Z,101179.47
2022-11-02T17:40:34.785Z,101178.69
2022-11-02T17:43:21.281Z,101180.63
2022-11-02T17:46:08.411Z,101192.09
2022-11-02T17:48:53.881Z,101186.31
2022-11-02T17:51:39.594Z,101184.41
2022-11-02T17:54:25.164Z,101204.81
2022-11-02T17:57:14.510Z,101205.34
2022-11-02T17:59:59.806Z,101211.94
2022-11-02T18:02:49.739Z,101207.69
2022-11-02T18:05:37.301Z,101197.06
2022-11-02T18:08:23.099Z,101205.09
2022-11-02T18:11:08.992Z,101213.25
2022-11-02T18:13:54.585Z,101213.94
2022-11-02T18:16:40.047Z,101223.50
2022-11-02T18:19:25.669Z,101213.16
2022-11-02T18:22:12.213Z,101215.56
2022-11-02T18:24:57.333Z,101223.06
2022-11-02T18:28:01.131Z,101223.09
2022-11-02T18:30:46.164Z,101211.72
2022-11-02T18:33:31.126Z,101214.94
2022-11-02T18:36:19.266Z,101218.19
2022-11-02T18:39:04.371Z,101218.13
2022-11-02T18:41:49.402Z,101214.75
2022-11-02T18:44:34.682Z,101201.78
2022-11-02T18:47:20.043Z,101207.09
2022-11-02T18:50:07.085Z,101204.34
2022-11-02T18:52:52.223Z,101199.78
2022-11-02T18:55:38.473Z,101203.16
2022-11-02T18:58:23.570Z,101202.19
2022-11-02T19:01:10.458Z,101196.41
2022-11-02T19:03:58.122Z,101187.13
2022-11-02T19:06:43.177Z,101181.00
2022-11-02T19:09:28.556Z,101177.47
2022-11-02T19:12:19.477Z,101178.09
2022-11-02T19:15:06.089Z,101176.25
2022-11-02T19:17:51.414Z,101165.88
2022-11-02T19:20:36.500Z,101172.78
2022-11-02T19:23:21.447Z,101164.22
2022-11-02T19:26:06.372Z,101173.47
2022-11-02T19:28:51.640Z,101172.75
2022-11-02T19:31:36.876Z,101168.41
2022-11-02T19:34:22.487Z,101162.50
2022-11-02T19:37:07.940Z,101160.09
2022-11-02T19:39:52.922Z,101151.34
2022-11-02T19:42:37.859Z,101150.28
2022-11-02T19:45:23.102Z,101163.16
2022-11-02T19:48:08.393Z,101164.75
2022-11-02T19:50:53.662Z,101169.91
2022-11-02T19:53:40.364Z,101173.25
2022-11-02T19:56:27.149Z,101171.56
2022-11-02T19:59:12.474Z,101164.50
2022-11-02T20:01:57.970Z,101168.38
2022-11-02T20:04:45.013Z,101179.34
2022-11-02T20:07:30.261Z,101182.03
2022-11-02T20:10:15.675Z,101180.94
2022-11-02T20:13:00.924Z,101182.56
2022-11-02T20:15:45.957Z,101177.28
2022-11-02T20:18:31.213Z,101187.59
2022-11-02T20:21:19.284Z,101186.59
2022-11-02T20:24:04.957Z,101180.47
2022-11-02T20:26:49.729Z,101173.47
2022-11-02T20:29:34.911Z,101174.25
2022-11-02T20:32:20.119Z,101174.00
2022-11-02T20:35:09.669Z,101166.94
2022-11-02T20:37:57.414Z,101169.59
2022-11-02T20:40:42.416Z,101163.75
2022-11-02T20:43:27.407Z,101156.78
2022-11-02T20:49:29.300Z,101161.59
2022-11-02T20:52:21.329Z,101149.69
2022-11-02T20:55:07.123Z,101142.78
2022-11-02T20:57:52.392Z,101145.22
2022-11-02T21:00:37.644Z,101135.88
2022-11-02T21:03:23.490Z,101143.53
2022-11-02T21:06:08.920Z,101140.94
2022-11-02T21:08:54.158Z,101137.59
2022-11-02T21:11:39.215Z,101125.59
2022-11-02T21:14:24.603Z,101130.13
2022-11-02T21:17:09.792Z,101116.31
2022-11-02T21:19:58.258Z,101116.31
2022-11-02T21:22:50.187Z,101112.19
2022-11-02T21:25:35.589Z,101105.41
2022-11-02T21:28:20.665Z,101111.50
2022-11-02T21:31:07.966Z,101105.56
2022-11-02T21:33:53.227Z,101102.22
2022-11-02T21:36:38.257Z,101100.56
2022-11-02T21:39:23.655Z,101099.88
2022-11-02T21:42:08.782Z,101100.75
2022-11-02T21:44:53.942Z,101091.41
2022-11-02T21:47:39.419Z,101085.38
2022-11-02T21:50:24.363Z,101088.97
2022-11-02T21:53:09.911Z,101083.91
2022-11-02T21:55:59.739Z,101082.13
2022-11-02T21:58:46.465Z,101075.38
2022-11-02T22:01:33.096Z,101081.53
2022-11-02T22:04:19.315Z,101069.53
2022-11-02T22:07:04.965Z,101066.94
2022-11-02T22:09:50.232Z,101058.41
2022-11-02T22:12:35.746Z,101055.91
2022-11-02T22:15:21.120Z,101049.97
2022-11-02T22:18:06.078Z,101050.19
2022-11-02T22:20:55.242Z,101050.16
2022-11-02T22:23:41.570Z,101049.28
2022-11-02T22:26:28.568Z,101046.81
2022-11-02T22:29:13.546Z,101042.53
2022-11-02T22:31:58.951Z,101029.69
2022-11-02T22:34:44.092Z,101025.47
2022-11-02T22:37:28.916Z,101019.38
2022-11-02T22:40:13.820Z,101015.91
2022-11-02T22:42:59.060Z,101014.09
2022-11-02T22:45:45.443Z,101009.88
2022-11-02T22:48:31.087Z,101007.31
2022-11-02T22:51:16.706Z,100998.69
2022-11-02T22:54:04.493Z,101003.84
2022-11-02T22:56:49.504Z,101003.78
2022-11-02T22:59:34.384Z,101004.63
2022-11-02T23:02:19.749Z,101000.25
2022-11-02T23:05:05.531Z,100997.66
2022-11-02T23:07:50.447Z,100996.84
2022-11-02T23:10:39.215Z,100986.34
2022-11-02T23:13:24.696Z,100989.16
2022-11-02T23:16:11.978Z,100983.78
2022-11-02T23:19:03.322Z,100986.25
2022-11-02T23:21:51.277Z,100988.03
2022-11-02T23:24:43.603Z,100975.00
2022-11-02T23:27:30.067Z,100976.63
2022-11-02T23:30:15.524Z,100981.72
2022-11-02T23:33:00.864Z,100971.41
2022-11-02T23:35:46.198Z,100970.56
2022-11-02T23:38:31.299Z,100963.59
2022-11-02T23:41:17.952Z,100960.94
2022-11-02T23:44:02.926Z,100962.66
2022-11-02T23:46:48.309Z,100966.94
2022-11-02T23:49:33.392Z,100965.22
2022-11-02T23:52:18.569Z,100962.63
2022-11-02T23:55:03.966Z,100966.09
2022-11-02T23:57:49.139Z,100960.13
